createdAt,value
2022-12-22T00:04:11.946Z,100056.03
2022-12-22T00:09:33.909Z,100045.81
2022-12-22T00:14:56.307Z,100044.06
2022-12-22T00:20:19.944Z,100049.16
2022-12-22T00:25:41.789Z,100049.16
2022-12-22T00:31:03.732Z,100038.97
2022-12-22T00:36:25.754Z,100040.69
2022-12-22T00:41:47.554Z,100027.16
2022-12-22T00:47:14.708Z,100047.47
2022-12-22T00:52:36.808Z,100035.56
2022-12-22T00:57:59.563Z,100029.66
2022-12-22T01:03:21.507Z,100031.31
2022-12-22T01:08:43.557Z,100024.56
2022-12-22T01:14:10.421Z,100027.91
2022-12-22T01:19:32.245Z,100035.56
2022-12-22T01:24:54.065Z,100033.88
2022-12-22T01:30:15.962Z,100021.22
2022-12-22T01:35:37.808Z,100025.47
2022-12-22T01:41:01.769Z,100014.44
2022-12-22T01:46:31.870Z,100018.72
2022-12-22T01:51:53.993Z,100028.91
2022-12-22T01:57:15.872Z,100015.31
2022-12-22T02:02:38.017Z,100017.00
2022-12-22T02:08:32.706Z,100011.06
2022-12-22T02:14:12.889Z,100011.00
2022-12-22T02:19:53.330Z,100000.84
2022-12-22T02:25:28.007Z,100013.63
2022-12-22T02:30:51.698Z,100002.56
2022-12-22T02:36:26.388Z,100022.06
2022-12-22T02:42:06.777Z,100027.16
2022-12-22T02:47:50.670Z,100029.66
2022-12-22T02:53:14.768Z,100021.16
2022-12-22T02:58:37.235Z,100033.84
2022-12-22T03:03:59.150Z,100027.06
2022-12-22T03:09:21.044Z,100003.22
2022-12-22T03:14:42.923Z,100015.94
2022-12-22T03:20:05.489Z,100014.19
2022-12-22T03:25:27.383Z,100009.91
2022-12-22T03:30:58.315Z,100018.41
2022-12-22T03:36:20.207Z,100007.38
2022-12-22T03:41:42.054Z,100001.34
2022-12-22T03:47:04.151Z,99997.09
2022-12-22T03:52:26.057Z,100006.47
2022-12-22T03:57:47.891Z,100014.19
2022-12-22T04:03:09.998Z,99985.25
2022-12-22T04:08:31.989Z,99994.44
2022-12-22T04:13:53.855Z,99977.38
2022-12-22T04:19:15.840Z,99980.75
2022-12-22T04:24:37.678Z,99973.03
2022-12-22T04:29:59.588Z,99967.97
2022-12-22T04:35:21.476Z,99972.97
2022-12-22T04:40:43.403Z,99946.75
2022-12-22T04:46:06.136Z,99954.47
2022-12-22T04:51:28.537Z,99961.22
2022-12-22T04:56:50.763Z,99960.38
2022-12-22T05:02:12.751Z,99963.81
2022-12-22T05:07:34.756Z,99951.88
2022-12-22T05:12:57.170Z,99949.53
2022-12-22T05:18:19.056Z,99963.06
2022-12-22T05:23:41.884Z,99951.28
2022-12-22T05:29:03.735Z,99944.53
2022-12-22T05:34:25.676Z,99937.78
2022-12-22T05:39:47.583Z,99955.59
2022-12-22T05:45:15.264Z,99958.94
2022-12-22T05:50:37.441Z,99953.91
2022-12-22T05:55:59.271Z,99966.56
2022-12-22T06:01:21.111Z,99961.50
2022-12-22T06:06:42.923Z,99958.09
2022-12-22T06:12:05.149Z,99955.47
2022-12-22T06:17:27.046Z,99976.66
2022-12-22T06:22:48.891Z,99969.06
2022-12-22T06:28:10.810Z,99980.00
2022-12-22T06:33:33.933Z,99985.13
2022-12-22T06:38:55.757Z,99961.34
2022-12-22T06:44:17.638Z,99990.25
2022-12-22T06:49:39.586Z,99981.66
2022-12-22T06:55:01.435Z,99991.00
2022-12-22T07:00:23.429Z,99968.91
2022-12-22T07:05:45.279Z,99969.75
2022-12-22T07:11:07.118Z,99982.44
2022-12-22T07:16:29.053Z,99992.53
2022-12-22T07:21:51.041Z,99982.22
2022-12-22T07:27:12.921Z,99973.72
2022-12-22T07:32:34.756Z,99965.25
2022-12-22T07:37:56.730Z,99946.59
2022-12-22T07:43:18.569Z,99962.63
2022-12-22T07:48:40.424Z,99940.56
2022-12-22T07:54:05.391Z,99931.09
2022-12-22T07:59:27.349Z,99940.41
2022-12-22T08:04:49.270Z,99936.88
2022-12-22T08:10:12.283Z,99937.56
2022-12-22T08:15:34.135Z,99924.25
2022-12-22T08:20:55.958Z,99928.97
2022-12-22T08:26:20.547Z,99927.13
2022-12-22T08:31:42.871Z,99897.75
2022-12-22T08:37:09.532Z,99893.75
2022-12-22T08:42:33.293Z,99890.00
2022-12-22T08:47:55.120Z,99880.03
2022-12-22T08:53:37.582Z,99888.00
2022-12-22T08:58:58.780Z,99878.25
2022-12-22T09:04:22.368Z,99878.03
2022-12-22T09:09:44.523Z,99881.50
2022-12-22T09:15:07.201Z,99880.72
2022-12-22T09:20:29.103Z,99892.22
2022-12-22T09:25:53.848Z,99894.94
2022-12-22T09:31:15.797Z,99895.09
2022-12-22T09:36:41.458Z,99894.09
2022-12-22T09:42:03.421Z,99870.56
2022-12-22T09:47:38.329Z,99862.09
2022-12-22T09:53:02.561Z,99856.53
2022-12-22T09:58:30.519Z,99834.03
2022-12-22T10:04:02.869Z,99819.59
2022-12-22T10:09:50.183Z,99825.38
2022-12-22T10:15:18.345Z,99834.88
2022-12-22T10:20:45.093Z,99809.38
2022-12-22T10:26:30.781Z,99800.81
2022-12-22T10:32:17.307Z,99801.22
2022-12-22T10:37:40.719Z,99786.66
2022-12-22T10:43:04.313Z,99795.78
2022-12-22T10:48:32.393Z,99778.91
2022-12-22T10:53:56.505Z,99783.06
2022-12-22T10:59:21.444Z,99779.88
2022-12-22T11:04:43.288Z,99742.81
2022-12-22T11:10:41.382Z,99747.09
2022-12-22T11:16:14.991Z,99737.00
2022-12-22T11:22:07.857Z,99740.28
2022-12-22T11:28:07.331Z,99723.13
2022-12-22T11:33:51.372Z,99738.09
2022-12-22T11:39:17.678Z,99724.84
2022-12-22T11:45:04.220Z,99690.13
2022-12-22T11:50:59.524Z,99699.66
2022-12-22T11:56:25.235Z,99698.28
2022-12-22T12:02:02.382Z,99691.13
2022-12-22T12:07:49.256Z,99684.75
2022-12-22T12:13:27.384Z,99683.97
2022-12-22T12:19:26.331Z,99679.25
2022-12-22T12:25:28.074Z,99670.91
2022-12-22T12:31:00.454Z,99633.34
2022-12-22T12:36:25.176Z,99652.34
2022-12-22T12:41:46.995Z,99665.00
2022-12-22T12:47:20.998Z,99659.47
2022-12-22T12:52:42.844Z,99637.22
2022-12-22T12:58:09.240Z,99633.66
2022-12-22T13:04:02.007Z,99628.19
2022-12-22T13:09:49.030Z,99631.50
2022-12-22T13:15:04.794Z,99628.31
2022-12-22T13:20:35.159Z,99633.44
2022-12-22T13:26:00.204Z,99644.94
2022-12-22T13:31:24.804Z,99638.50
2022-12-22T13:36:48.656Z,99644.63
2022-12-22T13:42:13.146Z,99622.66
2022-12-22T13:47:35.156Z,99626.41
2022-12-22T13:52:58.144Z,99633.09
2022-12-22T13:58:35.926Z,99610.94
2022-12-22T14:04:04.537Z,99607.63
2022-12-22T14:09:28.083Z,99596.81
2022-12-22T14:14:52.749Z,99597.47
2022-12-22T14:20:23.422Z,99582.16
2022-12-22T14:25:47.585Z,99578.22
2022-12-22T14:31:12.599Z,99578.19
2022-12-22T14:36:40.691Z,99580.72
2022-12-22T14:42:23.463Z,99556.72
2022-12-22T14:47:45.393Z,99558.13
2022-12-22T14:53:07.283Z,99549.47
2022-12-22T14:58:32.873Z,99556.38
2022-12-22T15:04:00.479Z,99542.09
2022-12-22T15:10:03.751Z,99563.09
2022-12-22T15:15:19.810Z,99553.69
2022-12-22T15:20:41.785Z,99547.91
2022-12-22T15:26:03.606Z,99546.38
2022-12-22T15:31:25.566Z,99550.66
2022-12-22T15:36:47.485Z,99542.38
2022-12-22T15:42:09.335Z,99543.34
2022-12-22T15:47:31.189Z,99546.78
2022-12-22T15:52:56.328Z,99531.50
2022-12-22T15:58:26.926Z,99523.28
2022-12-22T16:03:48.835Z,99532.56
2022-12-22T16:09:20.077Z,99523.16
2022-12-22T16:14:49.957Z,99497.78
2022-12-22T16:20:12.518Z,99499.56
2022-12-22T16:25:37.310Z,99498.63
2022-12-22T16:31:00.621Z,99484.13
2022-12-22T16:36:22.550Z,99485.91
2022-12-22T16:41:44.633Z,99481.88
2022-12-22T16:47:06.516Z,99483.59
2022-12-22T16:52:40.130Z,99477.56
2022-12-22T16:58:05.572Z,99487.75
2022-12-22T17:03:34.768Z,99476.97
2022-12-22T17:08:57.920Z,99487.88
2022-12-22T17:14:25.438Z,99466.03
2022-12-22T17:19:47.483Z,99473.59
2022-12-22T17:25:17.646Z,99464.16
2022-12-22T17:30:39.623Z,99460.75
2022-12-22T17:36:01.896Z,99451.41
2022-12-22T17:41:23.778Z,99445.47
2022-12-22T17:46:46.145Z,99461.53
2022-12-22T17:52:22.904Z,99453.06
2022-12-22T17:57:44.911Z,99433.59
2022-12-22T18:03:08.796Z,99444.53
2022-12-22T18:08:30.858Z,99436.06
2022-12-22T18:13:53.983Z,99433.38
2022-12-22T18:19:15.875Z,99427.38
2022-12-22T18:24:37.831Z,99417.19
2022-12-22T18:29:59.838Z,99409.53
2022-12-22T18:35:26.627Z,99414.31
2022-12-22T18:40:48.466Z,99390.63
2022-12-22T18:46:11.005Z,99399.53
2022-12-22T18:51:34.050Z,99397.59
2022-12-22T18:56:56.327Z,99393.41
2022-12-22T19:02:28.663Z,99399.22
2022-12-22T19:07:51.908Z,99392.16
2022-12-22T19:13:50.272Z,99398.19
2022-12-22T19:19:21.308Z,99366.03
2022-12-22T19:24:44.168Z,99378.66
2022-12-22T19:30:06.754Z,99362.34
2022-12-22T19:35:31.047Z,99373.16
2022-12-22T19:40:55.505Z,99358.69
2022-12-22T19:46:17.572Z,99371.25
2022-12-22T19:51:39.470Z,99378.66
2022-12-22T19:57:01.480Z,99357.94
2022-12-22T20:02:32.326Z,99349.31
2022-12-22T20:07:58.835Z,99349.75
2022-12-22T20:13:21.612Z,99328.56
2022-12-22T20:18:44.617Z,99351.03
2022-12-22T20:24:07.637Z,99341.59
2022-12-22T20:29:29.475Z,99320.28
2022-12-22T20:34:51.328Z,99337.84
2022-12-22T20:40:23.630Z,99338.66
2022-12-22T20:45:47.397Z,99342.00
2022-12-22T20:51:18.674Z,99334.34
2022-12-22T20:56:40.996Z,99327.66
2022-12-22T21:02:03.259Z,99344.44
2022-12-22T21:07:25.244Z,99337.06
2022-12-22T21:12:47.278Z,99329.22
2022-12-22T21:18:20.859Z,99326.91
2022-12-22T21:23:42.753Z,99330.84
2022-12-22T21:29:08.362Z,99325.66
2022-12-22T21:34:30.174Z,99330.72
2022-12-22T21:39:52.021Z,99327.25
2022-12-22T21:45:16.299Z,99319.34
2022-12-22T21:50:38.607Z,99313.19
2022-12-22T21:56:00.435Z,99302.19
2022-12-22T22:01:22.303Z,99315.06
2022-12-22T22:06:44.342Z,99316.19
2022-12-22T22:12:06.463Z,99315.44
2022-12-22T22:17:28.271Z,99319.59
2022-12-22T22:22:51.151Z,99302.66
2022-12-22T22:28:12.996Z,99312.81
2022-12-22T22:33:34.824Z,99309.34
2022-12-22T22:38:56.815Z,99309.25
2022-12-22T22:44:18.870Z,99306.88
2022-12-22T22:49:40.731Z,99294.78
2022-12-22T22:55:02.932Z,99311.78
2022-12-22T23:00:24.945Z,99313.53
2022-12-22T23:05:46.771Z,99300.78
2022-12-22T23:11:13.776Z,99290.56
2022-12-22T23:16:38.710Z,99299.50
2022-12-22T23:22:01.156Z,99306.28
2022-12-22T23:27:23.043Z,99310.63
2022-12-22T23:32:44.990Z,99306.63
2022-12-22T23:38:07.369Z,99288.28
2022-12-22T23:43:29.367Z,99298.63
2022-12-22T23:48:56.748Z,99298.88
2022-12-22T23:54:18.615Z,99301.22
2022-12-22T23:59:40.467Z,99295.16
